createdAt,value
2023-01-30T00:00:25.025Z,6.27
2023-01-30T00:03:30.301Z,6.33
2023-01-30T00:06:37.117Z,6.24
2023-01-30T00:09:42.351Z,6.27
2023-01-30T00:12:47.816Z,6.30
2023-01-30T00:15:52.941Z,6.27
2023-01-30T00:18:58.199Z,6.33
2023-01-30T00:22:04.915Z,6.31
2023-01-30T00:25:13.601Z,6.32
2023-01-30T00:28:18.862Z,6.38
2023-01-30T00:31:26.665Z,6.40
2023-01-30T00:34:31.747Z,6.42
2023-01-30T00:37:38.407Z,6.39
2023-01-30T00:40:44.706Z,6.36
2023-01-30T00:44:07.144Z,6.40
2023-01-30T00:47:14.044Z,6.47
2023-01-30T00:50:19.907Z,6.42
2023-01-30T00:53:26.725Z,6.51
2023-01-30T00:56:31.836Z,6.45
2023-01-30T00:59:37.208Z,6.35
2023-01-30T01:02:42.746Z,6.35
2023-01-30T01:05:47.949Z,6.27
2023-01-30T01:08:54.296Z,6.28
2023-01-30T01:11:59.400Z,6.32
2023-01-30T01:15:04.896Z,6.30
2023-01-30T01:18:13.598Z,6.38
2023-01-30T01:21:20.336Z,6.41
2023-01-30T01:24:27.899Z,6.32
2023-01-30T01:27:33.442Z,6.26
2023-01-30T01:30:39.959Z,6.29
2023-01-30T01:33:49.165Z,6.25
2023-01-30T01:36:54.932Z,6.33
2023-01-30T01:40:18.769Z,6.18
2023-01-30T01:43:25.749Z,6.34
2023-01-30T01:46:33.479Z,6.32
2023-01-30T01:49:39.806Z,6.36
2023-01-30T01:52:45.749Z,6.25
2023-01-30T01:56:04.918Z,6.33
2023-01-30T01:59:15.578Z,6.26
2023-01-30T02:02:23.517Z,6.34
2023-01-30T02:05:33.142Z,6.40
2023-01-30T02:08:40.924Z,6.33
2023-01-30T02:11:51.298Z,6.23
2023-01-30T02:14:58.563Z,6.29
2023-01-30T02:18:05.729Z,6.27
2023-01-30T02:21:34.740Z,6.13
2023-01-30T02:24:59.317Z,6.09
2023-01-30T02:28:26.421Z,6.10
2023-01-30T02:31:42.297Z,6.05
2023-01-30T02:34:51.238Z,6.03
2023-01-30T02:38:08.190Z,6.08
2023-01-30T02:41:20.263Z,6.04
2023-01-30T02:44:28.639Z,5.96
2023-01-30T02:47:39.996Z,6.00
2023-01-30T02:50:49.233Z,6.04
2023-01-30T02:53:54.447Z,6.04
2023-01-30T02:57:01.184Z,6.09
2023-01-30T03:00:09.504Z,5.96
2023-01-30T03:03:34.456Z,6.00
2023-01-30T03:07:11.268Z,5.92
2023-01-30T03:10:24.173Z,5.98
2023-01-30T03:13:46.850Z,5.94
2023-01-30T03:16:54.524Z,5.93
2023-01-30T03:20:04.117Z,5.80
2023-01-30T03:23:14.145Z,5.89
2023-01-30T03:26:23.951Z,5.83
2023-01-30T03:29:29.484Z,5.80
2023-01-30T03:32:34.656Z,5.82
2023-01-30T03:35:44.855Z,5.68
2023-01-30T03:38:53.331Z,5.69
2023-01-30T03:42:00.997Z,5.58
2023-01-30T03:45:06.441Z,5.56
2023-01-30T03:48:12.928Z,5.46
2023-01-30T03:51:19.474Z,5.36
2023-01-30T03:54:24.761Z,5.43
2023-01-30T03:57:30.168Z,5.41
2023-01-30T04:00:36.220Z,5.34
2023-01-30T04:03:42.733Z,5.33
2023-01-30T04:06:49.319Z,5.34
2023-01-30T04:09:54.862Z,5.32
2023-01-30T04:13:00.137Z,5.30
2023-01-30T04:16:20.084Z,5.20
2023-01-30T04:19:43.819Z,5.17
2023-01-30T04:22:50.541Z,5.10
2023-01-30T04:25:55.988Z,5.01
2023-01-30T04:29:03.503Z,4.99
2023-01-30T04:32:09.324Z,5.02
2023-01-30T04:35:16.702Z,4.99
2023-01-30T04:38:23.863Z,5.02
2023-01-30T04:41:28.993Z,5.06
2023-01-30T04:44:38.351Z,4.95
2023-01-30T04:47:51.429Z,4.97
2023-01-30T04:50:59.949Z,5.00
2023-01-30T04:54:06.714Z,4.82
2023-01-30T04:57:13.223Z,4.85
2023-01-30T05:00:19.141Z,4.75
2023-01-30T05:03:30.345Z,4.91
2023-01-30T05:06:36.783Z,4.68
2023-01-30T05:09:43.338Z,4.75
2023-01-30T05:12:49.759Z,4.85
2023-01-30T05:15:54.993Z,4.67
2023-01-30T05:19:02.096Z,4.73
2023-01-30T05:22:07.101Z,4.65
2023-01-30T05:25:14.374Z,4.58
2023-01-30T05:28:30.541Z,4.51
2023-01-30T05:31:36.376Z,4.54
2023-01-30T05:34:41.415Z,4.46
2023-01-30T05:37:46.445Z,4.50
2023-01-30T05:41:02.305Z,4.63
2023-01-30T05:44:07.539Z,4.50
2023-01-30T05:47:12.981Z,4.38
2023-01-30T05:50:20.114Z,4.52
2023-01-30T05:53:31.149Z,4.46
2023-01-30T05:56:37.787Z,4.40
2023-01-30T05:59:47.883Z,4.39
2023-01-30T06:02:52.978Z,4.37
2023-01-30T06:05:58.664Z,4.28
2023-01-30T06:09:04.714Z,4.24
2023-01-30T06:12:12.095Z,4.33
2023-01-30T06:15:19.108Z,4.21
2023-01-30T06:18:24.509Z,4.25
2023-01-30T06:21:29.739Z,4.33
2023-01-30T06:24:34.762Z,4.24
2023-01-30T06:27:41.565Z,4.23
2023-01-30T06:30:46.939Z,4.30
2023-01-30T06:33:52.034Z,4.18
2023-01-30T06:36:57.349Z,4.20
2023-01-30T06:40:02.156Z,4.18
2023-01-30T06:43:09.111Z,4.19
2023-01-30T06:46:14.780Z,4.14
2023-01-30T06:49:20.340Z,4.18
2023-01-30T06:52:25.398Z,4.28
2023-01-30T06:55:30.630Z,4.36
2023-01-30T06:58:37.732Z,4.38
2023-01-30T07:01:42.693Z,4.45
2023-01-30T07:04:47.873Z,4.51
2023-01-30T07:07:53.992Z,4.41
2023-01-30T07:10:59.109Z,4.29
2023-01-30T07:14:07.798Z,4.20
2023-01-30T07:17:16.162Z,4.16
2023-01-30T07:20:21.329Z,4.13
2023-01-30T07:23:26.552Z,4.23
2023-01-30T07:26:31.842Z,4.27
2023-01-30T07:29:38.805Z,4.30
2023-01-30T07:32:46.014Z,4.43
2023-01-30T07:35:51.015Z,4.40
2023-01-30T07:38:56.646Z,4.39
2023-01-30T07:42:02.511Z,4.39
2023-01-30T07:45:10.793Z,4.37
2023-01-30T07:48:18.515Z,4.24
2023-01-30T07:51:25.239Z,4.19
2023-01-30T07:54:30.357Z,4.17
2023-01-30T07:57:35.541Z,4.16
2023-01-30T08:00:45.007Z,4.18
2023-01-30T08:03:51.322Z,4.18
2023-01-30T08:06:56.134Z,4.27
2023-01-30T08:10:01.743Z,4.32
2023-01-30T08:13:06.926Z,4.43
2023-01-30T08:16:14.920Z,4.56
2023-01-30T08:19:23.367Z,4.59
2023-01-30T08:22:29.369Z,4.68
2023-01-30T08:25:35.510Z,4.72
2023-01-30T08:28:41.794Z,4.79
2023-01-30T08:31:48.919Z,4.82
2023-01-30T08:34:54.422Z,4.87
2023-01-30T08:37:59.999Z,4.89
2023-01-30T08:41:07.723Z,4.90
2023-01-30T08:44:14.619Z,4.92
2023-01-30T08:47:21.564Z,4.91
2023-01-30T08:50:27.379Z,4.89
2023-01-30T08:53:32.860Z,4.89
2023-01-30T08:56:38.224Z,4.86
2023-01-30T08:59:43.444Z,4.89
2023-01-30T09:02:52.490Z,4.87
2023-01-30T09:05:57.981Z,4.91
2023-01-30T09:09:03.170Z,4.88
2023-01-30T09:12:08.756Z,4.92
2023-01-30T09:15:14.129Z,4.94
2023-01-30T09:18:21.199Z,4.92
2023-01-30T09:21:26.495Z,4.90
2023-01-30T09:24:31.552Z,4.98
2023-01-30T09:27:37.089Z,5.01
2023-01-30T09:30:42.353Z,4.99
2023-01-30T09:33:48.973Z,4.96
2023-01-30T09:36:54.350Z,4.86
2023-01-30T09:39:59.547Z,4.85
2023-01-30T09:43:20.502Z,4.88
2023-01-30T09:46:34.832Z,4.75
2023-01-30T09:49:51.234Z,4.65
2023-01-30T09:53:05.670Z,4.65
2023-01-30T09:56:15.117Z,4.62
2023-01-30T09:59:25.697Z,4.59
2023-01-30T10:02:41.179Z,4.53
2023-01-30T10:05:50.514Z,4.57
2023-01-30T10:09:02.639Z,4.50
2023-01-30T10:12:24.723Z,4.50
2023-01-30T10:15:41.709Z,4.43
2023-01-30T10:18:57.139Z,4.51
2023-01-30T10:22:11.909Z,4.56
2023-01-30T10:25:25.357Z,4.62
2023-01-30T10:28:34.039Z,4.61
2023-01-30T10:31:44.507Z,4.61
2023-01-30T10:34:52.496Z,4.79
2023-01-30T10:38:04.769Z,4.70
2023-01-30T10:41:19.789Z,4.74
2023-01-30T10:44:25.558Z,4.70
2023-01-30T10:47:47.128Z,4.71
2023-01-30T10:50:57.635Z,4.86
2023-01-30T10:54:10.298Z,4.75
2023-01-30T10:57:24.053Z,4.82
2023-01-30T11:00:31.538Z,4.75
2023-01-30T11:03:41.725Z,4.82
2023-01-30T11:06:47.308Z,4.79
2023-01-30T11:09:54.388Z,4.78
2023-01-30T11:13:03.011Z,4.71
2023-01-30T11:16:10.188Z,4.75
2023-01-30T11:19:20.252Z,4.71
2023-01-30T11:22:27.733Z,4.80
2023-01-30T11:25:51.187Z,4.74
2023-01-30T11:28:58.608Z,4.85
2023-01-30T11:32:07.020Z,4.95
2023-01-30T11:35:34.746Z,4.99
2023-01-30T11:38:40.227Z,4.97
2023-01-30T11:42:01.881Z,4.96
2023-01-30T11:45:17.822Z,4.92
2023-01-30T11:48:33.282Z,4.93
2023-01-30T11:51:55.765Z,4.91
2023-01-30T11:55:05.498Z,4.83
2023-01-30T11:58:17.980Z,4.83
2023-01-30T12:01:24.431Z,4.94
2023-01-30T12:04:30.782Z,4.97
2023-01-30T12:07:37.015Z,5.14
2023-01-30T12:10:44.025Z,5.14
2023-01-30T12:13:51.515Z,5.13
2023-01-30T12:17:03.761Z,5.14
2023-01-30T12:20:18.147Z,4.91
2023-01-30T12:23:32.598Z,4.97
2023-01-30T12:26:42.363Z,4.96
2023-01-30T12:29:59.866Z,5.04
2023-01-30T12:33:06.661Z,5.00
2023-01-30T12:36:21.233Z,4.92
2023-01-30T12:39:36.979Z,4.95
2023-01-30T12:43:05.261Z,4.87
2023-01-30T12:46:25.009Z,4.78
2023-01-30T12:49:44.539Z,4.75
2023-01-30T12:53:07.218Z,4.82
2023-01-30T12:56:30.475Z,4.78
2023-01-30T12:59:44.410Z,4.84
2023-01-30T13:03:08.569Z,4.94
2023-01-30T13:06:26.260Z,4.91
2023-01-30T13:09:55.906Z,5.04
2023-01-30T13:13:12.478Z,5.04
2023-01-30T13:16:25.162Z,5.04
2023-01-30T13:19:40.967Z,5.09
2023-01-30T13:22:51.237Z,5.12
2023-01-30T13:26:01.150Z,5.15
2023-01-30T13:29:11.526Z,5.18
2023-01-30T13:32:19.434Z,5.16
2023-01-30T13:35:32.707Z,5.20
2023-01-30T13:38:45.249Z,5.15
2023-01-30T13:41:54.599Z,5.00
2023-01-30T13:45:00.778Z,4.94
2023-01-30T13:48:16.942Z,4.90
2023-01-30T13:51:37.920Z,4.93
2023-01-30T13:54:52.226Z,4.86
2023-01-30T13:58:02.567Z,4.86
2023-01-30T14:01:07.923Z,4.90
2023-01-30T14:04:45.110Z,4.79
2023-01-30T14:07:52.350Z,4.80
2023-01-30T14:10:59.293Z,4.83
2023-01-30T14:14:22.549Z,4.83
2023-01-30T14:17:27.758Z,4.90
2023-01-30T14:20:34.999Z,4.94
2023-01-30T14:23:42.352Z,4.90
2023-01-30T14:27:03.330Z,4.90
2023-01-30T14:30:35.473Z,4.82
2023-01-30T14:33:52.141Z,4.82
2023-01-30T14:36:57.269Z,4.80
2023-01-30T14:40:05.255Z,4.75
2023-01-30T14:43:52.588Z,4.77
2023-01-30T14:46:58.944Z,4.74
2023-01-30T14:50:14.630Z,4.73
2023-01-30T14:53:20.208Z,4.71
2023-01-30T14:56:40.968Z,4.74
2023-01-30T15:00:12.159Z,4.74
2023-01-30T15:03:20.432Z,4.68
2023-01-30T15:06:27.539Z,4.73
2023-01-30T15:09:34.056Z,4.76
2023-01-30T15:12:58.534Z,4.90
2023-01-30T15:16:12.945Z,4.88
2023-01-30T15:19:42.261Z,4.84
2023-01-30T15:23:04.172Z,4.80
2023-01-30T15:26:18.556Z,4.76
2023-01-30T15:29:36.356Z,4.77
2023-01-30T15:32:43.542Z,4.71
2023-01-30T15:35:56.464Z,4.73
2023-01-30T15:39:04.135Z,4.69
2023-01-30T15:42:09.774Z,4.75
2023-01-30T15:45:20.746Z,4.95
2023-01-30T15:48:43.035Z,4.90
2023-01-30T15:51:48.511Z,5.21
2023-01-30T15:54:55.057Z,5.22
2023-01-30T15:58:02.143Z,5.29
2023-01-30T16:01:10.793Z,5.45
2023-01-30T16:04:28.477Z,5.49
2023-01-30T16:07:34.964Z,5.46
2023-01-30T16:10:50.127Z,5.53
2023-01-30T16:13:55.310Z,5.43
2023-01-30T16:17:07.511Z,5.44
2023-01-30T16:20:16.600Z,5.39
2023-01-30T16:23:24.018Z,5.45
2023-01-30T16:26:29.268Z,5.49
2023-01-30T16:29:38.538Z,5.44
2023-01-30T16:32:45.087Z,5.46
2023-01-30T16:35:50.925Z,5.40
2023-01-30T16:38:56.354Z,5.41
2023-01-30T16:42:03.502Z,5.39
2023-01-30T16:45:46.014Z,5.41
2023-01-30T16:48:52.503Z,5.45
2023-01-30T16:52:05.745Z,5.31
2023-01-30T16:55:21.750Z,5.45
2023-01-30T16:58:32.419Z,5.34
2023-01-30T17:01:39.836Z,5.38
2023-01-30T17:04:46.394Z,5.43
2023-01-30T17:07:53.057Z,5.44
2023-01-30T17:11:00.459Z,5.32
2023-01-30T17:14:19.114Z,5.39
2023-01-30T17:17:24.332Z,5.41
2023-01-30T17:20:41.823Z,5.44
2023-01-30T17:23:49.671Z,5.33
2023-01-30T17:26:59.266Z,5.40
2023-01-30T17:30:04.709Z,5.36
2023-01-30T17:33:12.143Z,5.39
2023-01-30T17:36:24.096Z,5.29
2023-01-30T17:39:29.549Z,5.22
2023-01-30T17:42:34.889Z,5.17
2023-01-30T17:45:41.510Z,5.27
2023-01-30T17:48:46.610Z,5.09
2023-01-30T17:51:53.984Z,5.12
2023-01-30T17:54:59.022Z,5.17
2023-01-30T17:58:04.870Z,5.22
2023-01-30T18:01:11.907Z,5.26
2023-01-30T18:04:18.173Z,5.31
2023-01-30T18:07:27.812Z,5.22
2023-01-30T18:10:33.159Z,5.20
2023-01-30T18:13:38.231Z,5.16
2023-01-30T18:16:43.608Z,5.22
2023-01-30T18:19:49.046Z,5.12
2023-01-30T18:22:56.443Z,5.13
2023-01-30T18:26:10.755Z,5.11
2023-01-30T18:29:17.408Z,5.06
2023-01-30T18:32:23.571Z,5.10
2023-01-30T18:35:29.399Z,5.03
2023-01-30T18:38:37.492Z,5.03
2023-01-30T18:41:48.460Z,5.02
2023-01-30T18:44:53.831Z,4.95
2023-01-30T18:47:59.741Z,4.86
2023-01-30T18:51:08.686Z,4.91
2023-01-30T18:54:15.299Z,4.86
2023-01-30T18:57:20.692Z,4.90
2023-01-30T19:00:25.873Z,4.87
2023-01-30T19:03:31.994Z,4.90
2023-01-30T19:06:38.674Z,4.82
2023-01-30T19:09:45.283Z,4.82
2023-01-30T19:13:08.339Z,4.69
2023-01-30T19:16:13.534Z,4.65
2023-01-30T19:19:20.149Z,4.61
2023-01-30T19:22:26.819Z,4.54
2023-01-30T19:25:39.649Z,4.55
2023-01-30T19:28:46.719Z,4.41
2023-01-30T19:31:51.563Z,4.39
2023-01-30T19:34:59.449Z,4.42
2023-01-30T19:38:05.170Z,4.32
2023-01-30T19:41:14.622Z,4.19
2023-01-30T19:44:20.022Z,4.14
2023-01-30T19:47:25.231Z,4.07
2023-01-30T19:50:30.379Z,4.07
2023-01-30T19:53:35.727Z,4.16
2023-01-30T19:56:47.479Z,4.19
2023-01-30T19:59:52.631Z,4.16
2023-01-30T20:02:58.963Z,4.27
2023-01-30T20:06:13.225Z,4.34
2023-01-30T20:09:26.723Z,4.29
2023-01-30T20:12:34.976Z,4.28
2023-01-30T20:15:41.914Z,4.24
2023-01-30T20:18:48.195Z,4.32
2023-01-30T20:21:54.772Z,4.28
2023-01-30T20:25:00.290Z,4.25
2023-01-30T20:28:06.996Z,4.22
2023-01-30T20:31:13.526Z,4.20
2023-01-30T20:34:18.968Z,4.21
2023-01-30T20:37:25.873Z,4.15
2023-01-30T20:40:31.127Z,4.16
2023-01-30T20:43:38.555Z,4.16
2023-01-30T20:46:44.948Z,4.18
2023-01-30T20:49:50.145Z,4.19
2023-01-30T20:52:56.221Z,4.17
2023-01-30T20:56:02.580Z,4.17
2023-01-30T20:59:10.731Z,4.14
2023-01-30T21:02:16.008Z,4.10
2023-01-30T21:05:21.352Z,4.05
2023-01-30T21:08:28.475Z,4.02
2023-01-30T21:11:33.572Z,4.05
2023-01-30T21:14:42.875Z,4.03
2023-01-30T21:17:49.305Z,4.05
2023-01-30T21:20:54.403Z,4.01
2023-01-30T21:24:02.764Z,3.99
2023-01-30T21:27:08.031Z,3.99
2023-01-30T21:30:16.799Z,3.97
2023-01-30T21:33:21.942Z,4.03
2023-01-30T21:36:29.024Z,3.97
2023-01-30T21:39:52.666Z,4.00
2023-01-30T21:43:16.124Z,4.00
2023-01-30T21:46:22.700Z,4.08
2023-01-30T21:49:28.147Z,4.03
2023-01-30T21:52:34.099Z,3.92
2023-01-30T21:55:39.327Z,4.00
2023-01-30T21:58:44.418Z,3.96
2023-01-30T22:01:51.063Z,4.00
2023-01-30T22:04:58.794Z,3.97
2023-01-30T22:08:05.129Z,3.93
2023-01-30T22:11:12.094Z,3.91
2023-01-30T22:14:17.979Z,3.92
2023-01-30T22:17:24.820Z,3.93
2023-01-30T22:20:31.248Z,3.95
2023-01-30T22:23:37.768Z,3.88
2023-01-30T22:26:42.998Z,3.90
2023-01-30T22:29:49.100Z,3.88
2023-01-30T22:32:56.841Z,3.91
2023-01-30T22:36:03.132Z,3.94
2023-01-30T22:39:11.323Z,3.89
2023-01-30T22:42:17.120Z,3.88
2023-01-30T22:45:22.368Z,3.84
2023-01-30T22:48:29.322Z,3.86
2023-01-30T22:51:37.125Z,3.77
2023-01-30T22:54:42.480Z,3.70
2023-01-30T22:57:48.406Z,3.61
2023-01-30T23:00:53.543Z,3.56
2023-01-30T23:04:02.655Z,3.55
2023-01-30T23:07:07.815Z,3.47
2023-01-30T23:10:13.756Z,3.45
2023-01-30T23:13:19.748Z,3.41
2023-01-30T23:16:27.763Z,3.31
2023-01-30T23:19:33.609Z,3.28
2023-01-30T23:22:38.966Z,3.26
2023-01-30T23:25:45.009Z,3.18
2023-01-30T23:28:49.952Z,3.15
2023-01-30T23:31:55.404Z,3.17
2023-01-30T23:35:02.293Z,3.15
2023-01-30T23:38:20.260Z,3.06
2023-01-30T23:41:27.499Z,3.01
2023-01-30T23:44:32.847Z,2.97
2023-01-30T23:47:37.946Z,2.92
2023-01-30T23:50:44.862Z,2.95
2023-01-30T23:53:50.984Z,2.98
2023-01-30T23:56:57.260Z,2.88
